sensor_id;sensor_type;location;lat;lon;timestamp;temperature;humidity
26621;DHT22;14253;44.840;10.444;2023-02-28T00:00:33;4.40;99.90
26621;DHT22;14253;44.840;10.444;2023-02-28T00:02:59;4.40;99.90
26621;DHT22;14253;44.840;10.444;2023-02-28T00:05:27;4.40;99.90
26621;DHT22;14253;44.840;10.444;2023-02-28T00:07:53;4.40;99.90
26621;DHT22;14253;44.840;10.444;2023-02-28T00:10:21;4.40;99.90
26621;DHT22;14253;44.840;10.444;2023-02-28T00:12:49;4.50;99.90
26621;DHT22;14253;44.840;10.444;2023-02-28T00:15:16;4.40;99.90
26621;DHT22;14253;44.840;10.444;2023-02-28T00:17:43;4.40;99.90
26621;DHT22;14253;44.840;10.444;2023-02-28T00:20:11;4.40;99.90
26621;DHT22;14253;44.840;10.444;2023-02-28T00:22:42;4.40;99.90
26621;DHT22;14253;44.840;10.444;2023-02-28T00:25:09;4.40;99.90
26621;DHT22;14253;44.840;10.444;2023-02-28T00:27:36;4.40;99.90
26621;DHT22;14253;44.840;10.444;2023-02-28T00:30:05;4.40;99.90
26621;DHT22;14253;44.840;10.444;2023-02-28T00:32:31;4.40;99.90
26621;DHT22;14253;44.840;10.444;2023-02-28T00:34:57;4.40;99.90
26621;DHT22;14253;44.840;10.444;2023-02-28T00:37:23;4.40;99.90
26621;DHT22;14253;44.840;10.444;2023-02-28T00:39:49;4.30;99.90
26621;DHT22;14253;44.840;10.444;2023-02-28T00:42:15;4.30;99.90
26621;DHT22;14253;44.840;10.444;2023-02-28T00:44:41;4.30;99.90
26621;DHT22;14253;44.840;10.444;2023-02-28T00:47:07;4.30;99.90
26621;DHT22;14253;44.840;10.444;2023-02-28T00:49:33;4.30;99.90
26621;DHT22;14253;44.840;10.444;2023-02-28T00:51:59;4.30;99.90
26621;DHT22;14253;44.840;10.444;2023-02-28T00:54:25;4.20;99.90
26621;DHT22;14253;44.840;10.444;2023-02-28T00:56:51;4.20;99.90
26621;DHT22;14253;44.840;10.444;2023-02-28T00:59:18;4.20;99.90
26621;DHT22;14253;44.840;10.444;2023-02-28T01:01:45;4.20;99.90
26621;DHT22;14253;44.840;10.444;2023-02-28T01:04:13;4.20;99.90
26621;DHT22;14253;44.840;10.444;2023-02-28T01:06:39;4.20;99.90
26621;DHT22;14253;44.840;10.444;2023-02-28T01:09:06;4.20;99.90
26621;DHT22;14253;44.840;10.444;2023-02-28T01:11:32;4.20;99.90
26621;DHT22;14253;44.840;10.444;2023-02-28T01:13:58;4.20;99.90
26621;DHT22;14253;44.840;10.444;2023-02-28T01:16:24;4.20;99.90
26621;DHT22;14253;44.840;10.444;2023-02-28T01:18:51;4.20;99.90
26621;DHT22;14253;44.840;10.444;2023-02-28T01:21:19;4.20;99.90
26621;DHT22;14253;44.840;10.444;2023-02-28T01:23:45;4.20;99.90
26621;DHT22;14253;44.840;10.444;2023-02-28T01:26:15;4.20;99.90
26621;DHT22;14253;44.840;10.444;2023-02-28T01:28:41;4.20;99.90
26621;DHT22;14253;44.840;10.444;2023-02-28T01:31:08;4.20;99.90
26621;DHT22;14253;44.840;10.444;2023-02-28T01:33:37;4.20;99.90
26621;DHT22;14253;44.840;10.444;2023-02-28T01:36:14;4.20;99.90
26621;DHT22;14253;44.840;10.444;2023-02-28T01:38:42;4.20;99.90
26621;DHT22;14253;44.840;10.444;2023-02-28T01:41:14;4.30;99.90
26621;DHT22;14253;44.840;10.444;2023-02-28T01:46:12;4.20;99.90
26621;DHT22;14253;44.840;10.444;2023-02-28T01:48:45;4.30;99.90
26621;DHT22;14253;44.840;10.444;2023-02-28T01:51:16;4.20;99.90
26621;DHT22;14253;44.840;10.444;2023-02-28T01:53:47;4.20;99.90
26621;DHT22;14253;44.840;10.444;2023-02-28T01:56:19;4.20;99.90
26621;DHT22;14253;44.840;10.444;2023-02-28T01:58:52;4.30;99.90
26621;DHT22;14253;44.840;10.444;2023-02-28T02:01:20;4.30;99.90
26621;DHT22;14253;44.840;10.444;2023-02-28T02:03:53;4.30;99.90
26621;DHT22;14253;44.840;10.444;2023-02-28T02:06:38;4.20;99.90
26621;DHT22;14253;44.840;10.444;2023-02-28T02:09:10;4.30;99.90
26621;DHT22;14253;44.840;10.444;2023-02-28T02:11:37;4.30;99.90
26621;DHT22;14253;44.840;10.444;2023-02-28T02:17:25;4.30;99.90
26621;DHT22;14253;44.840;10.444;2023-02-28T02:20:04;4.30;99.90
26621;DHT22;14253;44.840;10.444;2023-02-28T02:22:58;4.30;99.90
26621;DHT22;14253;44.840;10.444;2023-02-28T02:26:00;4.30;99.90
26621;DHT22;14253;44.840;10.444;2023-02-28T02:31:33;4.30;99.90
26621;DHT22;14253;44.840;10.444;2023-02-28T02:39:40;4.40;99.90
26621;DHT22;14253;44.840;10.444;2023-02-28T02:42:16;4.40;99.90
26621;DHT22;14253;44.840;10.444;2023-02-28T02:44:51;4.40;99.90
26621;DHT22;14253;44.840;10.444;2023-02-28T02:47:22;4.40;99.90
26621;DHT22;14253;44.840;10.444;2023-02-28T02:49:52;4.40;99.90
26621;DHT22;14253;44.840;10.444;2023-02-28T02:52:24;4.40;99.90
26621;DHT22;14253;44.840;10.444;2023-02-28T02:54:56;4.40;99.90
26621;DHT22;14253;44.840;10.444;2023-02-28T03:00:14;4.30;99.90
26621;DHT22;14253;44.840;10.444;2023-02-28T03:02:43;4.40;99.90
26621;DHT22;14253;44.840;10.444;2023-02-28T03:05:23;4.40;99.90
26621;DHT22;14253;44.840;10.444;2023-02-28T03:07:51;4.40;99.90
26621;DHT22;14253;44.840;10.444;2023-02-28T03:21:40;4.30;99.90
26621;DHT22;14253;44.840;10.444;2023-02-28T03:24:21;4.30;99.90
26621;DHT22;14253;44.840;10.444;2023-02-28T03:26:58;4.30;99.90
26621;DHT22;14253;44.840;10.444;2023-02-28T03:29:35;4.40;99.90
26621;DHT22;14253;44.840;10.444;2023-02-28T03:32:11;4.30;99.90
26621;DHT22;14253;44.840;10.444;2023-02-28T03:34:46;4.40;99.90
26621;DHT22;14253;44.840;10.444;2023-02-28T03:37:18;4.30;99.90
26621;DHT22;14253;44.840;10.444;2023-02-28T03:40:10;4.30;99.90
26621;DHT22;14253;44.840;10.444;2023-02-28T03:42:41;4.30;99.90
26621;DHT22;14253;44.840;10.444;2023-02-28T03:45:15;4.30;99.90
26621;DHT22;14253;44.840;10.444;2023-02-28T03:47:49;4.30;99.90
26621;DHT22;14253;44.840;10.444;2023-02-28T03:50:20;4.30;99.90
26621;DHT22;14253;44.840;10.444;2023-02-28T03:53:10;4.30;99.90
26621;DHT22;14253;44.840;10.444;2023-02-28T03:56:00;4.30;99.90
26621;DHT22;14253;44.840;10.444;2023-02-28T03:58:41;4.30;99.90
26621;DHT22;14253;44.840;10.444;2023-02-28T04:01:16;4.20;99.90
26621;DHT22;14253;44.840;10.444;2023-02-28T04:03:44;4.20;99.90
26621;DHT22;14253;44.840;10.444;2023-02-28T04:06:18;4.20;99.90
26621;DHT22;14253;44.840;10.444;2023-02-28T04:08:44;4.20;99.90
26621;DHT22;14253;44.840;10.444;2023-02-28T04:11:34;4.20;99.90
26621;DHT22;14253;44.840;10.444;2023-02-28T04:14:05;4.20;99.90
26621;DHT22;14253;44.840;10.444;2023-02-28T04:16:32;4.30;99.90
26621;DHT22;14253;44.840;10.444;2023-02-28T04:18:58;4.20;99.90
26621;DHT22;14253;44.840;10.444;2023-02-28T04:21:32;4.20;99.90
26621;DHT22;14253;44.840;10.444;2023-02-28T04:23:58;4.20;99.90
26621;DHT22;14253;44.840;10.444;2023-02-28T04:26:33;4.20;99.90
26621;DHT22;14253;44.840;10.444;2023-02-28T04:29:00;4.10;99.90
26621;DHT22;14253;44.840;10.444;2023-02-28T04:31:26;4.10;99.90
26621;DHT22;14253;44.840;10.444;2023-02-28T04:33:52;4.10;99.90
26621;DHT22;14253;44.840;10.444;2023-02-28T04:36:18;4.20;99.90
26621;DHT22;14253;44.840;10.444;2023-02-28T04:38:45;4.10;99.90
26621;DHT22;14253;44.840;10.444;2023-02-28T04:41:12;4.10;99.90
26621;DHT22;14253;44.840;10.444;2023-02-28T04:43:38;4.10;99.90
26621;DHT22;14253;44.840;10.444;2023-02-28T04:46:05;4.10;99.90
26621;DHT22;14253;44.840;10.444;2023-02-28T04:48:33;4.10;99.90
26621;DHT22;14253;44.840;10.444;2023-02-28T04:51:07;4.10;99.90
26621;DHT22;14253;44.840;10.444;2023-02-28T04:53:35;4.10;99.90
26621;DHT22;14253;44.840;10.444;2023-02-28T04:56:01;4.10;99.90
26621;DHT22;14253;44.840;10.444;2023-02-28T04:58:27;4.10;99.90
26621;DHT22;14253;44.840;10.444;2023-02-28T05:00:54;4.10;99.90
26621;DHT22;14253;44.840;10.444;2023-02-28T05:03:26;4.10;99.90
26621;DHT22;14253;44.840;10.444;2023-02-28T05:05:52;4.10;99.90
26621;DHT22;14253;44.840;10.444;2023-02-28T05:08:18;4.10;99.90
26621;DHT22;14253;44.840;10.444;2023-02-28T05:10:44;4.10;99.90
26621;DHT22;14253;44.840;10.444;2023-02-28T05:13:13;4.10;99.90
26621;DHT22;14253;44.840;10.444;2023-02-28T05:15:39;4.10;99.90
26621;DHT22;14253;44.840;10.444;2023-02-28T05:18:05;4.00;99.90
26621;DHT22;14253;44.840;10.444;2023-02-28T05:20:31;4.10;99.90
26621;DHT22;14253;44.840;10.444;2023-02-28T05:22:58;4.10;99.90
26621;DHT22;14253;44.840;10.444;2023-02-28T05:25:25;4.10;99.90
26621;DHT22;14253;44.840;10.444;2023-02-28T05:27:50;4.10;99.90
26621;DHT22;14253;44.840;10.444;2023-02-28T05:30:16;4.10;99.90
26621;DHT22;14253;44.840;10.444;2023-02-28T05:32:42;4.10;99.90
26621;DHT22;14253;44.840;10.444;2023-02-28T05:35:11;4.10;99.90
26621;DHT22;14253;44.840;10.444;2023-02-28T05:37:38;4.10;99.90
26621;DHT22;14253;44.840;10.444;2023-02-28T05:40:05;4.10;99.90
26621;DHT22;14253;44.840;10.444;2023-02-28T05:42:33;4.10;99.90
26621;DHT22;14253;44.840;10.444;2023-02-28T05:44:59;4.10;99.90
26621;DHT22;14253;44.840;10.444;2023-02-28T05:47:25;4.10;99.90
26621;DHT22;14253;44.840;10.444;2023-02-28T05:49:51;4.10;99.90
26621;DHT22;14253;44.840;10.444;2023-02-28T05:52:17;4.10;99.90
26621;DHT22;14253;44.840;10.444;2023-02-28T05:54:43;4.10;99.90
26621;DHT22;14253;44.840;10.444;2023-02-28T05:57:09;4.00;99.90
26621;DHT22;14253;44.840;10.444;2023-02-28T05:59:34;4.00;99.90
26621;DHT22;14253;44.840;10.444;2023-02-28T06:02:15;4.00;99.90
26621;DHT22;14253;44.840;10.444;2023-02-28T06:04:41;4.00;99.90
26621;DHT22;14253;44.840;10.444;2023-02-28T06:07:08;4.00;99.90
26621;DHT22;14253;44.840;10.444;2023-02-28T06:09:34;4.10;99.90
26621;DHT22;14253;44.840;10.444;2023-02-28T06:12:01;4.10;99.90
26621;DHT22;14253;44.840;10.444;2023-02-28T06:14:29;4.10;99.90
26621;DHT22;14253;44.840;10.444;2023-02-28T06:16:57;4.10;99.90
26621;DHT22;14253;44.840;10.444;2023-02-28T06:19:23;4.00;99.90
26621;DHT22;14253;44.840;10.444;2023-02-28T06:21:52;4.10;99.90
26621;DHT22;14253;44.840;10.444;2023-02-28T06:24:23;4.10;99.90
26621;DHT22;14253;44.840;10.444;2023-02-28T06:26:49;4.10;99.90
26621;DHT22;14253;44.840;10.444;2023-02-28T06:29:16;4.10;99.90
26621;DHT22;14253;44.840;10.444;2023-02-28T06:31:45;4.20;99.90
26621;DHT22;14253;44.840;10.444;2023-02-28T06:34:14;4.20;99.90
26621;DHT22;14253;44.840;10.444;2023-02-28T06:36:41;4.20;99.90
26621;DHT22;14253;44.840;10.444;2023-02-28T06:39:08;4.20;99.90
26621;DHT22;14253;44.840;10.444;2023-02-28T06:41:34;4.20;99.90
26621;DHT22;14253;44.840;10.444;2023-02-28T06:44:11;4.30;99.90
26621;DHT22;14253;44.840;10.444;2023-02-28T06:46:41;4.30;99.90
26621;DHT22;14253;44.840;10.444;2023-02-28T06:49:08;4.30;99.90
26621;DHT22;14253;44.840;10.444;2023-02-28T06:51:36;4.20;99.90
26621;DHT22;14253;44.840;10.444;2023-02-28T06:54:03;4.20;99.90
26621;DHT22;14253;44.840;10.444;2023-02-28T06:56:29;4.20;99.90
26621;DHT22;14253;44.840;10.444;2023-02-28T06:58:54;4.20;99.90
26621;DHT22;14253;44.840;10.444;2023-02-28T07:01:22;4.20;99.90
26621;DHT22;14253;44.840;10.444;2023-02-28T07:03:49;4.20;99.90
26621;DHT22;14253;44.840;10.444;2023-02-28T07:06:19;4.20;99.90
26621;DHT22;14253;44.840;10.444;2023-02-28T07:08:45;4.20;99.90
26621;DHT22;14253;44.840;10.444;2023-02-28T07:11:11;4.10;99.90
26621;DHT22;14253;44.840;10.444;2023-02-28T07:13:37;4.10;99.90
26621;DHT22;14253;44.840;10.444;2023-02-28T07:16:05;4.10;99.90
26621;DHT22;14253;44.840;10.444;2023-02-28T07:18:31;4.10;99.90
26621;DHT22;14253;44.840;10.444;2023-02-28T07:20:57;4.10;99.90
26621;DHT22;14253;44.840;10.444;2023-02-28T07:23:23;4.20;99.90
26621;DHT22;14253;44.840;10.444;2023-02-28T07:25:50;4.20;99.90
26621;DHT22;14253;44.840;10.444;2023-02-28T07:28:17;4.20;99.90
26621;DHT22;14253;44.840;10.444;2023-02-28T07:30:43;4.20;99.90
26621;DHT22;14253;44.840;10.444;2023-02-28T07:33:09;4.20;99.90
26621;DHT22;14253;44.840;10.444;2023-02-28T07:35:35;4.10;99.90
26621;DHT22;14253;44.840;10.444;2023-02-28T07:38:01;4.10;99.90
26621;DHT22;14253;44.840;10.444;2023-02-28T07:40:27;4.20;99.90
26621;DHT22;14253;44.840;10.444;2023-02-28T07:42:53;4.20;99.90
26621;DHT22;14253;44.840;10.444;2023-02-28T07:45:19;4.20;99.90
26621;DHT22;14253;44.840;10.444;2023-02-28T07:47:45;4.20;99.90
26621;DHT22;14253;44.840;10.444;2023-02-28T07:50:15;4.20;99.90
26621;DHT22;14253;44.840;10.444;2023-02-28T07:52:42;4.20;99.90
26621;DHT22;14253;44.840;10.444;2023-02-28T07:55:09;4.20;99.90
26621;DHT22;14253;44.840;10.444;2023-02-28T07:57:35;4.20;99.90
26621;DHT22;14253;44.840;10.444;2023-02-28T08:00:04;4.30;99.90
26621;DHT22;14253;44.840;10.444;2023-02-28T08:02:37;4.30;99.90
26621;DHT22;14253;44.840;10.444;2023-02-28T08:05:03;4.40;99.90
26621;DHT22;14253;44.840;10.444;2023-02-28T08:07:29;4.30;99.90
26621;DHT22;14253;44.840;10.444;2023-02-28T08:09:55;4.40;99.90
26621;DHT22;14253;44.840;10.444;2023-02-28T08:12:21;4.50;99.90
26621;DHT22;14253;44.840;10.444;2023-02-28T08:14:47;4.50;99.90
26621;DHT22;14253;44.840;10.444;2023-02-28T08:17:13;4.60;99.90
26621;DHT22;14253;44.840;10.444;2023-02-28T08:19:39;4.70;99.90
26621;DHT22;14253;44.840;10.444;2023-02-28T08:22:05;4.70;99.90
26621;DHT22;14253;44.840;10.444;2023-02-28T08:24:31;4.80;99.90
26621;DHT22;14253;44.840;10.444;2023-02-28T08:26:56;4.90;99.90
26621;DHT22;14253;44.840;10.444;2023-02-28T08:29:22;5.00;99.90
26621;DHT22;14253;44.840;10.444;2023-02-28T08:31:48;5.10;99.90
26621;DHT22;14253;44.840;10.444;2023-02-28T08:34:16;5.30;99.90
26621;DHT22;14253;44.840;10.444;2023-02-28T08:36:42;5.40;99.90
26621;DHT22;14253;44.840;10.444;2023-02-28T08:39:10;5.50;99.90
26621;DHT22;14253;44.840;10.444;2023-02-28T08:41:36;5.60;99.90
26621;DHT22;14253;44.840;10.444;2023-02-28T08:44:02;5.70;99.90
26621;DHT22;14253;44.840;10.444;2023-02-28T08:46:28;5.70;99.90
26621;DHT22;14253;44.840;10.444;2023-02-28T08:48:55;5.90;99.90
26621;DHT22;14253;44.840;10.444;2023-02-28T08:51:24;5.80;99.90
26621;DHT22;14253;44.840;10.444;2023-02-28T08:53:55;5.80;99.90
26621;DHT22;14253;44.840;10.444;2023-02-28T08:56:23;5.90;99.90
26621;DHT22;14253;44.840;10.444;2023-02-28T08:58:50;5.90;99.90
26621;DHT22;14253;44.840;10.444;2023-02-28T09:01:27;6.00;99.90
26621;DHT22;14253;44.840;10.444;2023-02-28T09:03:54;6.10;99.90
26621;DHT22;14253;44.840;10.444;2023-02-28T09:06:22;6.30;99.90
26621;DHT22;14253;44.840;10.444;2023-02-28T09:08:48;6.40;99.90
26621;DHT22;14253;44.840;10.444;2023-02-28T09:11:15;6.40;99.90
26621;DHT22;14253;44.840;10.444;2023-02-28T09:13:42;6.50;99.90
26621;DHT22;14253;44.840;10.444;2023-02-28T09:16:11;6.60;99.90
26621;DHT22;14253;44.840;10.444;2023-02-28T09:18:38;6.60;99.90
26621;DHT22;14253;44.840;10.444;2023-02-28T09:21:05;6.70;99.90
26621;DHT22;14253;44.840;10.444;2023-02-28T09:23:31;6.80;99.90
26621;DHT22;14253;44.840;10.444;2023-02-28T09:25:57;6.90;99.90
26621;DHT22;14253;44.840;10.444;2023-02-28T09:28:24;7.00;99.90
26621;DHT22;14253;44.840;10.444;2023-02-28T09:30:53;6.90;99.90
26621;DHT22;14253;44.840;10.444;2023-02-28T09:33:20;7.00;99.90
26621;DHT22;14253;44.840;10.444;2023-02-28T09:35:47;7.10;99.90
26621;DHT22;14253;44.840;10.444;2023-02-28T09:38:13;7.00;99.90
26621;DHT22;14253;44.840;10.444;2023-02-28T09:40:50;7.10;99.90
26621;DHT22;14253;44.840;10.444;2023-02-28T09:43:17;7.10;99.90
26621;DHT22;14253;44.840;10.444;2023-02-28T09:45:56;7.10;99.90
26621;DHT22;14253;44.840;10.444;2023-02-28T09:48:30;7.30;99.90
26621;DHT22;14253;44.840;10.444;2023-02-28T09:51:02;7.50;99.90
26621;DHT22;14253;44.840;10.444;2023-02-28T09:53:32;7.70;99.90
26621;DHT22;14253;44.840;10.444;2023-02-28T09:56:22;7.70;99.90
26621;DHT22;14253;44.840;10.444;2023-02-28T09:59:13;7.70;99.90
26621;DHT22;14253;44.840;10.444;2023-02-28T10:02:04;7.50;99.90
26621;DHT22;14253;44.840;10.444;2023-02-28T10:05:02;7.50;99.90
26621;DHT22;14253;44.840;10.444;2023-02-28T10:07:45;7.50;99.90
26621;DHT22;14253;44.840;10.444;2023-02-28T10:10:27;7.60;99.90
26621;DHT22;14253;44.840;10.444;2023-02-28T10:12:56;7.80;99.90
26621;DHT22;14253;44.840;10.444;2023-02-28T10:15:25;7.90;99.90
26621;DHT22;14253;44.840;10.444;2023-02-28T10:17:56;8.20;99.90
26621;DHT22;14253;44.840;10.444;2023-02-28T10:20:24;8.20;99.90
26621;DHT22;14253;44.840;10.444;2023-02-28T10:23:20;8.20;99.90
26621;DHT22;14253;44.840;10.444;2023-02-28T10:26:08;8.40;99.90
26621;DHT22;14253;44.840;10.444;2023-02-28T10:28:35;8.50;99.90
26621;DHT22;14253;44.840;10.444;2023-02-28T10:31:02;8.50;99.90
26621;DHT22;14253;44.840;10.444;2023-02-28T10:33:31;8.60;99.90
26621;DHT22;14253;44.840;10.444;2023-02-28T10:35:58;8.50;99.90
26621;DHT22;14253;44.840;10.444;2023-02-28T10:38:27;8.40;99.90
26621;DHT22;14253;44.840;10.444;2023-02-28T10:43:35;8.50;99.90
26621;DHT22;14253;44.840;10.444;2023-02-28T10:48:38;8.30;99.90
26621;DHT22;14253;44.840;10.444;2023-02-28T10:51:07;8.30;99.90
26621;DHT22;14253;44.840;10.444;2023-02-28T10:53:38;8.30;99.90
26621;DHT22;14253;44.840;10.444;2023-02-28T10:58:55;8.40;99.90
26621;DHT22;14253;44.840;10.444;2023-02-28T11:03:56;8.40;99.90
26621;DHT22;14253;44.840;10.444;2023-02-28T11:06:26;8.40;99.90
26621;DHT22;14253;44.840;10.444;2023-02-28T11:09:15;8.50;99.90
26621;DHT22;14253;44.840;10.444;2023-02-28T11:11:45;8.70;99.90
26621;DHT22;14253;44.840;10.444;2023-02-28T11:14:26;8.70;99.90
26621;DHT22;14253;44.840;10.444;2023-02-28T11:16:54;8.80;99.90
26621;DHT22;14253;44.840;10.444;2023-02-28T11:19:30;8.80;99.90
26621;DHT22;14253;44.840;10.444;2023-02-28T11:22:02;9.00;99.90
26621;DHT22;14253;44.840;10.444;2023-02-28T11:24:43;9.00;99.90
26621;DHT22;14253;44.840;10.444;2023-02-28T11:29:56;8.90;99.90
26621;DHT22;14253;44.840;10.444;2023-02-28T11:32:24;8.80;99.90
26621;DHT22;14253;44.840;10.444;2023-02-28T11:35:15;8.60;99.90
26621;DHT22;14253;44.840;10.444;2023-02-28T11:37:43;8.80;99.90
26621;DHT22;14253;44.840;10.444;2023-02-28T11:40:15;8.80;99.90
26621;DHT22;14253;44.840;10.444;2023-02-28T11:43:10;8.70;99.90
26621;DHT22;14253;44.840;10.444;2023-02-28T11:48:43;8.90;99.90
26621;DHT22;14253;44.840;10.444;2023-02-28T11:51:19;8.90;99.90
26621;DHT22;14253;44.840;10.444;2023-02-28T11:56:41;8.70;99.90
26621;DHT22;14253;44.840;10.444;2023-02-28T11:59:38;8.70;99.90
26621;DHT22;14253;44.840;10.444;2023-02-28T12:02:29;9.00;99.90
26621;DHT22;14253;44.840;10.444;2023-02-28T12:07:36;8.80;99.90
26621;DHT22;14253;44.840;10.444;2023-02-28T12:12:57;9.00;99.90
26621;DHT22;14253;44.840;10.444;2023-02-28T12:18:42;9.00;99.90
26621;DHT22;14253;44.840;10.444;2023-02-28T12:31:36;8.50;99.90
26621;DHT22;14253;44.840;10.444;2023-02-28T12:34:08;8.70;99.90
26621;DHT22;14253;44.840;10.444;2023-02-28T12:36:36;9.00;99.90
26621;DHT22;14253;44.840;10.444;2023-02-28T12:39:10;9.30;99.90
26621;DHT22;14253;44.840;10.444;2023-02-28T12:42:00;9.50;99.90
26621;DHT22;14253;44.840;10.444;2023-02-28T12:44:40;9.50;99.90
26621;DHT22;14253;44.840;10.444;2023-02-28T12:47:15;9.50;99.90
26621;DHT22;14253;44.840;10.444;2023-02-28T12:49:49;9.70;99.90
26621;DHT22;14253;44.840;10.444;2023-02-28T12:52:41;9.80;99.90
26621;DHT22;14253;44.840;10.444;2023-02-28T12:55:14;9.90;99.90
26621;DHT22;14253;44.840;10.444;2023-02-28T13:00:20;9.70;99.90
26621;DHT22;14253;44.840;10.444;2023-02-28T13:10:49;9.70;99.90
26621;DHT22;14253;44.840;10.444;2023-02-28T13:13:27;9.70;99.90
26621;DHT22;14253;44.840;10.444;2023-02-28T13:16:01;9.70;99.90
26621;DHT22;14253;44.840;10.444;2023-02-28T13:18:33;9.90;99.90
26621;DHT22;14253;44.840;10.444;2023-02-28T13:21:01;9.80;99.90
26621;DHT22;14253;44.840;10.444;2023-02-28T13:26:22;9.50;99.90
26621;DHT22;14253;44.840;10.444;2023-02-28T13:31:15;9.50;99.90
26621;DHT22;14253;44.840;10.444;2023-02-28T13:36:29;10.00;99.90
26621;DHT22;14253;44.840;10.444;2023-02-28T13:39:03;10.20;99.90
26621;DHT22;14253;44.840;10.444;2023-02-28T13:41:48;9.80;99.90
26621;DHT22;14253;44.840;10.444;2023-02-28T13:44:22;9.80;99.90
26621;DHT22;14253;44.840;10.444;2023-02-28T14:03:07;10.30;99.90
26621;DHT22;14253;44.840;10.444;2023-02-28T14:05:31;10.30;99.90
26621;DHT22;14253;44.840;10.444;2023-02-28T14:08:02;10.00;99.90
26621;DHT22;14253;44.840;10.444;2023-02-28T14:10:36;9.90;99.90
26621;DHT22;14253;44.840;10.444;2023-02-28T14:13:36;9.80;99.90
26621;DHT22;14253;44.840;10.444;2023-02-28T14:16:00;9.60;99.90
26621;DHT22;14253;44.840;10.444;2023-02-28T14:21:32;9.70;99.90
26621;DHT22;14253;44.840;10.444;2023-02-28T14:30:11;9.10;99.90
26621;DHT22;14253;44.840;10.444;2023-02-28T14:33:19;8.90;99.90
26621;DHT22;14253;44.840;10.444;2023-02-28T14:39:21;8.50;99.90
26621;DHT22;14253;44.840;10.444;2023-02-28T14:41:46;8.50;99.90
26621;DHT22;14253;44.840;10.444;2023-02-28T14:44:26;8.60;99.90
26621;DHT22;14253;44.840;10.444;2023-02-28T14:47:00;9.00;99.90
26621;DHT22;14253;44.840;10.444;2023-02-28T14:49:35;9.40;99.90
26621;DHT22;14253;44.840;10.444;2023-02-28T14:52:12;9.70;99.90
26621;DHT22;14253;44.840;10.444;2023-02-28T14:54:41;9.90;99.90
26621;DHT22;14253;44.840;10.444;2023-02-28T14:57:19;10.20;99.90
26621;DHT22;14253;44.840;10.444;2023-02-28T14:59:46;10.50;99.90
26621;DHT22;14253;44.840;10.444;2023-02-28T15:05:00;10.70;99.90
26621;DHT22;14253;44.840;10.444;2023-02-28T15:07:26;10.90;99.90
26621;DHT22;14253;44.840;10.444;2023-02-28T15:10:22;10.90;99.90
26621;DHT22;14253;44.840;10.444;2023-02-28T15:15:20;11.20;99.90
26621;DHT22;14253;44.840;10.444;2023-02-28T15:17:56;11.40;99.90
26621;DHT22;14253;44.840;10.444;2023-02-28T15:20:24;10.70;99.90
26621;DHT22;14253;44.840;10.444;2023-02-28T15:22:52;9.90;99.90
26621;DHT22;14253;44.840;10.444;2023-02-28T15:25:22;9.30;99.90
26621;DHT22;14253;44.840;10.444;2023-02-28T15:27:53;8.90;99.90
26621;DHT22;14253;44.840;10.444;2023-02-28T15:30:25;8.70;99.90
26621;DHT22;14253;44.840;10.444;2023-02-28T15:33:19;8.40;99.90
26621;DHT22;14253;44.840;10.444;2023-02-28T15:35:46;8.20;99.90
26621;DHT22;14253;44.840;10.444;2023-02-28T15:38:18;8.00;99.90
26621;DHT22;14253;44.840;10.444;2023-02-28T15:40:54;7.90;99.90
26621;DHT22;14253;44.840;10.444;2023-02-28T15:43:31;7.90;99.90
26621;DHT22;14253;44.840;10.444;2023-02-28T15:46:11;7.90;99.90
26621;DHT22;14253;44.840;10.444;2023-02-28T15:48:52;7.90;99.90
26621;DHT22;14253;44.840;10.444;2023-02-28T15:51:22;7.90;99.90
26621;DHT22;14253;44.840;10.444;2023-02-28T15:53:59;7.90;99.90
26621;DHT22;14253;44.840;10.444;2023-02-28T15:56:34;7.80;99.90
26621;DHT22;14253;44.840;10.444;2023-02-28T15:59:07;7.80;99.90
26621;DHT22;14253;44.840;10.444;2023-02-28T16:01:39;7.90;99.90
26621;DHT22;14253;44.840;10.444;2023-02-28T16:04:24;7.90;99.90
26621;DHT22;14253;44.840;10.444;2023-02-28T16:09:24;8.00;99.90
26621;DHT22;14253;44.840;10.444;2023-02-28T16:11:53;8.10;99.90
26621;DHT22;14253;44.840;10.444;2023-02-28T16:14:25;8.10;99.90
26621;DHT22;14253;44.840;10.444;2023-02-28T16:17:16;8.00;99.90
26621;DHT22;14253;44.840;10.444;2023-02-28T16:19:45;7.90;99.90
26621;DHT22;14253;44.840;10.444;2023-02-28T16:22:10;7.80;99.90
26621;DHT22;14253;44.840;10.444;2023-02-28T16:24:36;7.70;99.90
26621;DHT22;14253;44.840;10.444;2023-02-28T16:27:04;7.60;99.90
26621;DHT22;14253;44.840;10.444;2023-02-28T16:29:33;7.50;99.90
26621;DHT22;14253;44.840;10.444;2023-02-28T16:32:04;7.40;99.90
26621;DHT22;14253;44.840;10.444;2023-02-28T16:34:30;7.40;99.90
26621;DHT22;14253;44.840;10.444;2023-02-28T16:36:57;7.30;99.90
26621;DHT22;14253;44.840;10.444;2023-02-28T16:39:23;7.10;99.90
26621;DHT22;14253;44.840;10.444;2023-02-28T16:41:51;7.10;99.90
26621;DHT22;14253;44.840;10.444;2023-02-28T16:44:34;7.00;99.90
26621;DHT22;14253;44.840;10.444;2023-02-28T16:47:02;6.90;99.90
26621;DHT22;14253;44.840;10.444;2023-02-28T16:49:29;6.90;99.90
26621;DHT22;14253;44.840;10.444;2023-02-28T16:51:56;6.80;99.90
26621;DHT22;14253;44.840;10.444;2023-02-28T16:54:23;6.70;99.90
26621;DHT22;14253;44.840;10.444;2023-02-28T16:56:49;6.60;99.90
26621;DHT22;14253;44.840;10.444;2023-02-28T16:59:19;6.50;99.90
26621;DHT22;14253;44.840;10.444;2023-02-28T17:01:47;6.30;99.90
26621;DHT22;14253;44.840;10.444;2023-02-28T17:04:13;6.30;99.90
26621;DHT22;14253;44.840;10.444;2023-02-28T17:06:39;6.30;99.90
26621;DHT22;14253;44.840;10.444;2023-02-28T17:09:07;6.30;99.90
26621;DHT22;14253;44.840;10.444;2023-02-28T17:11:39;6.20;99.90
26621;DHT22;14253;44.840;10.444;2023-02-28T17:14:05;6.20;99.90
26621;DHT22;14253;44.840;10.444;2023-02-28T17:16:33;6.20;99.90
26621;DHT22;14253;44.840;10.444;2023-02-28T17:19:22;6.20;99.90
26621;DHT22;14253;44.840;10.444;2023-02-28T17:21:55;6.10;99.90
26621;DHT22;14253;44.840;10.444;2023-02-28T17:24:23;6.10;99.90
26621;DHT22;14253;44.840;10.444;2023-02-28T17:26:50;6.10;99.90
26621;DHT22;14253;44.840;10.444;2023-02-28T17:29:20;6.00;99.90
26621;DHT22;14253;44.840;10.444;2023-02-28T17:31:49;6.00;99.90
26621;DHT22;14253;44.840;10.444;2023-02-28T17:34:27;6.00;99.90
26621;DHT22;14253;44.840;10.444;2023-02-28T17:37:08;6.00;99.90
26621;DHT22;14253;44.840;10.444;2023-02-28T17:39:34;5.90;99.90
26621;DHT22;14253;44.840;10.444;2023-02-28T17:42:00;5.80;99.90
26621;DHT22;14253;44.840;10.444;2023-02-28T17:44:26;5.80;99.90
26621;DHT22;14253;44.840;10.444;2023-02-28T17:46:54;5.90;99.90
26621;DHT22;14253;44.840;10.444;2023-02-28T17:49:20;5.90;99.90
26621;DHT22;14253;44.840;10.444;2023-02-28T17:51:47;5.90;99.90
26621;DHT22;14253;44.840;10.444;2023-02-28T17:54:13;6.00;99.90